Elmendorf Air Force Base
PAED : now visible

Airfield :











YOU CAN JOIN US ON...

 
LOGIN :

Register | Disclaimer

   EN    FR    IT 

 









Legend :    VFR   Marginal VFR   IFR   Intensive IFR   Very Intensive IFR
Visi :
Ceiling :
>= 8 km
>= 3000ft
5 to 8 km
1000 to 3000 ft
1500m to 5 km
500 to 1000 ft
800 to 1500m
200 to 500 ft
< 800m
< 200 ft
Symbols :   Thunderstorms  Fog  Heavy snow  Heavy precipitations  Wind > 20 kt






- Airport Elevation : 212 ft
- IATA code : EDF


PAED - Elmendorf Air Force Base

CURRENT METAR :
  • 301414Z 36006KT 10SM -RA BKN075 08/05 A2953 RMK AO2A PRESFR SLP996 $

EXPIRED METARs :
  • 301356Z 36009KT 10SM -RA BKN075 08/05 A2955 RMK AO2A SLP003 P0000 T00770046 $
  • 301349Z 36010KT 10SM -RA FEW060 BKN075 08/05 A2955 RMK SLP003 $
  • 301256Z 34010KT 10SM BKN065 08/04 A2958 RMK AO2A SLP013 T00800044 $
  • 301156Z 00000KT 10SM OVC060 09/04 A2962 RMK AO2A SLP026 60000 T00880036 10091 20072 57024 $

TAF TAF PAED
Valid from the 30 at 10:00 until the 01 at 16:00 UTC


301000Z 3010/0116 31009KT 9999 VCSH FEW030 BKN060 OVC120 610604 580009 QNH2961INS
TEMPO 3010/3016 9000 -SHRA BR BKN030
BECMG 3015/3016 04012G18KT 9999 VCSH FEW020 BKN050 620604 580009 QNH2943INS WND 320V050
TEMPO 3016/3022 9000 -SHRA BKN030
BECMG 0100/0101 04009KT 9999 NSW SCT050 580009 QNH2942INS TX15/3023Z TN06/3014Z
PAZA FIR / North America



MET'MAP, your aeronautical weather chart ! - Copyright ORBIFLY December 2007 - Disclaimer

ORBIFLY MET'MAP TEAM :

Programming & Development : Alexandra Zaïnal
Concept & original design : Baudouin d'Aumeries
Assistance for programming : Marc-Olivier Méhu
Technical & hardware support : Manuel Goepfert

Contact : metmap@orbifly.com




SOURCES & CREDITS :

   NOAA       Earth
Advisory